Time;durP1;ratioP1;P1;durP2;ratioP2;P2;SDS_P1;SDS_P2;PMS_P1;PMS_P2;Temp;Humidity;BMP_temperature;BMP_pressure;BME280_temperature;BME280_humidity;BME280_pressure;Samples;Min_cycle;Max_cycle;Signal;HPM_P1;HPM_P2
2023/05/17 00:01:41;;;;;;;0.20;0.20;;;;;;;20.33;45.96;101990.88;5112142;28;20054;-42
2023/05/17 00:04:07;;;;;;;0.20;0.20;;;;;;;20.33;45.72;101994.47;5112281;28;20047;-44
2023/05/17 00:06:33;;;;;;;0.20;0.20;;;;;;;20.33;45.82;101997.25;5112336;28;20383;-42
2023/05/17 00:08:59;;;;;;;0.20;0.20;;;;;;;20.33;45.94;101996.41;5112362;28;20051;-44
2023/05/17 00:11:25;;;;;;;0.20;0.20;;;;;;;20.34;45.89;101995.34;5111385;28;20058;-42
2023/05/17 00:13:51;;;;;;;0.20;0.20;;;;;;;20.33;45.68;101997.25;5112310;28;20043;-42
2023/05/17 00:16:16;;;;;;;0.20;0.20;;;;;;;20.33;45.65;102007.47;5112082;28;20523;-43
2023/05/17 00:18:42;;;;;;;0.20;0.20;;;;;;;20.33;46.02;102008.31;5112330;28;20047;-43
2023/05/17 00:21:08;;;;;;;0.20;0.20;;;;;;;20.33;46.16;102001.94;5112589;28;20103;-42
2023/05/17 00:23:34;;;;;;;0.20;0.20;;;;;;;20.33;46.06;102002.78;5111940;28;20427;-42
2023/05/17 00:25:59;;;;;;;0.20;0.20;;;;;;;20.33;46.09;102011.06;5112097;28;20043;-43
2023/05/17 00:28:25;;;;;;;0.20;0.20;;;;;;;20.33;45.91;102002.78;5112687;28;20039;-42
2023/05/17 00:30:51;;;;;;;0.20;0.20;;;;;;;20.33;45.74;101997.25;5112940;27;20046;-43
2023/05/17 00:33:16;;;;;;;0.20;0.20;;;;;;;20.33;45.96;102000.00;5115931;28;20065;-43
2023/05/17 00:35:42;;;;;;;0.20;0.20;;;;;;;20.32;46.05;101998.34;5115709;28;20562;-44
2023/05/17 00:38:07;;;;;;;0.20;0.20;;;;;;;20.32;45.83;102003.88;5115235;27;20051;-44
2023/05/17 00:40:33;;;;;;;0.20;0.20;;;;;;;20.33;45.85;102004.72;5115728;28;20055;-43
2023/05/17 00:42:59;;;;;;;0.20;0.20;;;;;;;20.33;46.09;102000.00;5115828;28;20429;-44
2023/05/17 00:45:24;;;;;;;0.20;0.20;;;;;;;20.32;46.23;101998.34;5115051;28;21385;-42
2023/05/17 00:47:50;;;;;;;0.20;0.20;;;;;;;20.33;45.68;101988.13;5115997;28;20455;-43
2023/05/17 00:50:16;;;;;;;0.20;0.20;;;;;;;20.33;45.74;101986.19;5116107;28;20047;-43
2023/05/17 00:52:42;;;;;;;0.20;0.20;;;;;;;20.33;46.25;101990.88;5115625;28;20051;-42
2023/05/17 00:55:08;;;;;;;0.30;0.30;;;;;;;20.33;45.97;101979.81;5115683;28;20054;-42
2023/05/17 00:57:34;;;;;;;0.20;0.20;;;;;;;20.32;46.25;101992.81;5115864;28;20047;-44
2023/05/17 01:00:00;;;;;;;0.20;0.20;;;;;;;20.34;45.99;101998.09;5115447;28;20051;-43
2023/05/17 01:02:25;;;;;;;0.20;0.20;;;;;;;20.30;45.80;101989.50;5097105;28;20779;-42
2023/05/17 01:04:51;;;;;;;0.20;0.20;;;;;;;20.32;46.13;101998.34;5115170;28;20123;-43
2023/05/17 01:07:17;;;;;;;0.20;0.20;;;;;;;20.33;45.79;101991.72;5115576;28;20047;-42
2023/05/17 01:09:43;;;;;;;0.20;0.20;;;;;;;20.32;45.93;101997.53;5111145;28;20066;-42
2023/05/17 01:12:21;;;;;;;0.20;0.20;;;;;;;20.32;45.93;101998.34;5076893;28;20039;-43
2023/05/17 01:15:11;;;;;;;0.20;0.20;;;;;;;20.31;46.00;101999.47;5114271;28;20051;-42
2023/05/17 01:17:43;;;;;;;0.20;0.20;;;;;;;20.32;46.07;102003.88;5115425;28;20416;-42
2023/05/17 01:20:17;;;;;;;0.20;0.20;;;;;;;20.31;45.91;101999.47;5108077;28;20047;-44
2023/05/17 01:25:28;;;;;;;0.20;0.20;;;;;;;20.31;46.17;101999.47;5172189;27;20484;-42
2023/05/17 01:27:57;;;;;;;0.20;0.20;;;;;;;20.32;46.04;102000.28;5116382;27;20510;-41
2023/05/17 01:30:24;;;;;;;0.20;0.20;;;;;;;20.30;45.98;102004.16;5132607;27;20047;-39
2023/05/17 01:32:52;;;;;;;0.20;0.20;;;;;;;20.33;45.99;102001.94;5112471;27;20292;-41
2023/05/17 01:35:18;;;;;;;0.20;0.20;;;;;;;20.31;45.96;102002.22;5111349;27;20290;-41
2023/05/17 01:37:43;;;;;;;0.20;0.20;;;;;;;20.32;46.16;102014.13;5130011;27;20047;-41
2023/05/17 01:40:09;;;;;;;0.20;0.20;;;;;;;20.31;46.25;102010.53;5130047;27;20039;-41
2023/05/17 01:42:39;;;;;;;0.20;0.20;;;;;;;20.32;46.10;102012.19;5130962;27;20039;-40
2023/05/17 01:45:26;;;;;;;0.20;0.20;;;;;;;20.32;46.05;102014.94;5109843;28;20492;-40
2023/05/17 01:48:02;;;;;;;0.20;0.20;;;;;;;20.30;45.93;102009.69;5107882;27;20050;-41
2023/05/17 01:50:30;;;;;;;0.20;0.20;;;;;;;20.32;46.27;102014.13;5130707;27;20555;-39
2023/05/17 01:53:04;;;;;;;0.20;0.20;;;;;;;20.30;46.12;102020.75;5130401;27;20269;-41
2023/05/17 01:55:49;;;;;;;0.28;0.28;;;;;;;20.30;46.09;102019.94;5111170;27;20119;-40
2023/05/17 01:58:15;;;;;;;0.20;0.20;;;;;;;20.30;46.07;102023.53;5130103;27;20074;-40
2023/05/17 02:00:42;;;;;;;0.20;0.20;;;;;;;20.32;45.98;102042.63;5130063;27;20051;-40
2023/05/17 02:03:23;;;;;;;0.20;0.20;;;;;;;20.32;46.17;102042.63;5130174;27;20503;-41
2023/05/17 02:05:49;;;;;;;0.20;0.20;;;;;;;20.31;46.12;102040.94;5129742;27;20400;-41
2023/05/17 02:08:15;;;;;;;0.20;0.20;;;;;;;20.32;46.06;102039.03;5129220;27;20553;-40
2023/05/17 02:10:40;;;;;;;0.20;0.20;;;;;;;20.32;45.92;102033.50;5130042;27;20054;-40
2023/05/17 02:13:06;;;;;;;0.20;0.20;;;;;;;20.32;46.08;102039.03;5129669;27;20103;-41
2023/05/17 02:15:32;;;;;;;0.20;0.20;;;;;;;20.30;46.26;102033.75;5129994;27;20502;-40
2023/05/17 02:17:57;;;;;;;0.20;0.20;;;;;;;20.32;45.91;102036.25;5129466;27;20065;-40
2023/05/17 02:20:23;;;;;;;0.20;0.20;;;;;;;20.30;45.96;102037.34;5129505;27;20057;-40
2023/05/17 02:22:49;;;;;;;0.20;0.20;;;;;;;20.30;46.10;102034.59;5129785;27;20118;-40
2023/05/17 02:25:15;;;;;;;0.20;0.20;;;;;;;20.30;46.33;102029.06;5129696;27;20073;-42
2023/05/17 02:27:43;;;;;;;0.20;0.20;;;;;;;20.30;46.24;102031.81;5129448;27;20110;-39
2023/05/17 02:30:09;;;;;;;0.20;0.20;;;;;;;20.31;45.86;102040.94;5129132;27;20431;-39
2023/05/17 02:32:35;;;;;;;0.20;0.20;;;;;;;20.30;46.17;102039.28;5129721;27;20810;-42
2023/05/17 02:35:01;;;;;;;0.20;0.20;;;;;;;20.30;46.18;102042.06;5125508;27;20384;-40
2023/05/17 02:37:26;;;;;;;0.20;0.20;;;;;;;20.31;46.15;102035.41;5115242;27;20047;-40
2023/05/17 02:39:52;;;;;;;0.20;0.20;;;;;;;20.29;46.16;102035.69;5115082;28;20415;-42
2023/05/17 02:42:18;;;;;;;0.20;0.20;;;;;;;20.30;46.21;102029.06;5115202;28;20058;-40
2023/05/17 02:44:43;;;;;;;0.20;0.20;;;;;;;20.30;46.10;102044.81;5115931;28;20043;-40
2023/05/17 02:47:09;;;;;;;0.20;0.20;;;;;;;20.29;46.05;102041.22;5097103;28;20075;-40
2023/05/17 02:49:35;;;;;;;0.30;0.30;;;;;;;20.29;46.27;102035.69;5114971;28;20058;-39
2023/05/17 02:52:01;;;;;;;0.20;0.20;;;;;;;20.30;46.16;102036.53;5115977;28;20050;-42
2023/05/17 02:54:26;;;;;;;0.20;0.20;;;;;;;20.30;46.13;102040.13;5115309;28;20599;-40
2023/05/17 02:56:52;;;;;;;0.20;0.20;;;;;;;20.30;46.01;102048.41;5115727;28;20043;-41
2023/05/17 02:59:18;;;;;;;0.20;0.20;;;;;;;20.29;46.10;102049.53;5115192;28;20098;-41
2023/05/17 03:01:43;;;;;;;0.20;0.20;;;;;;;20.30;46.10;102053.13;5094532;28;20044;-41
2023/05/17 03:04:09;;;;;;;0.20;0.20;;;;;;;20.28;46.11;102045.06;5105367;28;20046;-41
2023/05/17 03:06:36;;;;;;;0.30;0.30;;;;;;;20.30;46.16;102051.19;5114966;28;20047;-41
2023/05/17 03:09:02;;;;;;;0.20;0.20;;;;;;;20.30;46.12;102045.66;5115344;28;20062;-41
2023/05/17 03:11:28;;;;;;;0.20;0.20;;;;;;;20.30;46.16;102044.81;5096444;28;20048;-42
2023/05/17 03:13:53;;;;;;;0.20;0.20;;;;;;;20.29;46.05;102049.53;5102462;28;20126;-40
2023/05/17 03:16:19;;;;;;;0.20;0.20;;;;;;;20.29;46.11;102046.75;5114887;28;20047;-42
2023/05/17 03:18:45;;;;;;;0.20;0.20;;;;;;;20.28;46.03;102049.75;5114894;28;20242;-40
2023/05/17 03:21:11;;;;;;;0.20;0.20;;;;;;;20.29;46.11;102056.97;5114849;28;20043;-41
2023/05/17 03:23:36;;;;;;;0.20;0.20;;;;;;;20.28;46.20;102058.06;5115079;28;20054;-41
2023/05/17 03:26:02;;;;;;;0.20;0.20;;;;;;;20.29;46.20;102060.59;5114250;28;20422;-40
2023/05/17 03:28:28;;;;;;;0.20;0.20;;;;;;;20.30;46.05;102066.97;5114567;28;20057;-40
2023/05/17 03:30:53;;;;;;;0.20;0.20;;;;;;;20.29;46.25;102065.25;5114301;28;20633;-41
2023/05/17 03:33:19;;;;;;;0.20;0.20;;;;;;;20.28;46.04;102069.97;5113910;28;20051;-41
2023/05/17 03:35:46;;;;;;;0.20;0.20;;;;;;;20.28;46.31;102069.13;5101893;27;20050;-40
2023/05/17 03:38:12;;;;;;;0.20;0.20;;;;;;;20.30;46.02;102075.25;5114476;28;20047;-40
2023/05/17 03:40:38;;;;;;;0.20;0.20;;;;;;;20.29;46.13;102076.31;5095765;28;20108;-40
2023/05/17 03:43:04;;;;;;;0.20;0.20;;;;;;;20.29;46.33;102073.56;5112600;28;20124;-41
2023/05/17 03:45:29;;;;;;;0.20;0.20;;;;;;;20.29;46.11;102079.97;5092072;28;20368;-40
2023/05/17 03:47:55;;;;;;;0.20;0.20;;;;;;;20.29;45.98;102085.50;5093002;28;20617;-41
2023/05/17 03:50:21;;;;;;;0.30;0.30;;;;;;;20.29;46.19;102084.63;5102206;28;20490;-41
2023/05/17 03:52:47;;;;;;;0.20;0.20;;;;;;;20.30;45.95;102087.16;5113750;28;20039;-41
2023/05/17 03:55:13;;;;;;;0.20;0.20;;;;;;;20.29;46.11;102091.03;5113533;28;20378;-41
2023/05/17 03:57:38;;;;;;;0.20;0.20;;;;;;;20.29;45.88;102091.03;5095391;28;20266;-40
2023/05/17 04:00:09;;;;;;;0.20;0.20;;;;;;;20.29;46.41;102099.31;5106520;28;20431;-40
2023/05/17 04:02:35;;;;;;;0.20;0.20;;;;;;;20.28;46.20;102099.56;5093391;28;20047;-40
2023/05/17 04:05:01;;;;;;;0.20;0.20;;;;;;;20.29;46.35;102098.47;5107210;28;20439;-40
2023/05/17 04:07:27;;;;;;;0.20;0.20;;;;;;;20.28;46.25;102094.84;5094856;28;20551;-40
2023/05/17 04:09:58;;;;;;;0.20;0.20;;;;;;;20.29;46.19;102101.22;5108919;28;20051;-40
2023/05/17 04:12:24;;;;;;;0.20;0.20;;;;;;;20.28;46.34;102096.78;5075284;28;20097;-40
2023/05/17 04:14:49;;;;;;;0.20;0.20;;;;;;;20.27;46.08;102107.03;5107073;28;20128;-40
2023/05/17 04:17:15;;;;;;;0.20;0.20;;;;;;;20.27;46.26;102098.72;5113679;28;20039;-40
2023/05/17 04:19:42;;;;;;;0.20;0.20;;;;;;;20.27;45.94;102101.50;5110319;28;20047;-41
2023/05/17 04:22:08;;;;;;;0.20;0.20;;;;;;;20.27;46.06;102100.66;5093083;28;20046;-42
2023/05/17 04:24:33;;;;;;;0.20;0.20;;;;;;;20.29;45.97;102109.53;5104089;28;20047;-40
2023/05/17 04:26:59;;;;;;;0.20;0.20;;;;;;;20.29;46.10;102112.28;5113899;28;20503;-41
2023/05/17 04:29:28;;;;;;;0.20;0.20;;;;;;;20.27;46.17;102107.03;5111671;28;20130;-41
2023/05/17 04:31:54;;;;;;;0.20;0.20;;;;;;;20.27;46.21;102103.44;5093066;28;20066;-43
2023/05/17 04:34:22;;;;;;;0.20;0.20;;;;;;;20.26;46.28;102108.13;5101789;27;20422;-41
2023/05/17 04:36:48;;;;;;;0.20;0.20;;;;;;;20.26;46.18;102104.53;5126377;27;20254;-43
2023/05/17 04:39:14;;;;;;;0.20;0.20;;;;;;;20.26;46.12;102107.28;5134093;27;20718;-40
2023/05/17 04:41:39;;;;;;;0.20;0.20;;;;;;;20.26;46.42;102113.66;5093790;27;20043;-39
2023/05/17 04:44:06;;;;;;;0.20;0.20;;;;;;;20.25;46.31;102111.13;5099777;28;20051;-39
2023/05/17 04:46:32;;;;;;;0.20;0.20;;;;;;;20.25;46.13;102112.00;5113587;28;20767;-41
2023/05/17 04:48:57;;;;;;;0.20;0.20;;;;;;;20.26;46.22;102115.59;5113881;28;20054;-41
2023/05/17 04:51:23;;;;;;;0.20;0.20;;;;;;;20.27;46.19;102120.03;5114154;28;20043;-40
2023/05/17 04:53:49;;;;;;;0.20;0.20;;;;;;;20.27;46.37;102120.84;5105173;28;20050;-39
2023/05/17 04:56:15;;;;;;;0.20;0.20;;;;;;;20.27;46.28;102125.56;5102305;28;20118;-39
2023/05/17 04:58:40;;;;;;;0.20;0.20;;;;;;;20.28;46.33;102130.81;5100052;27;20047;-41
2023/05/17 05:01:06;;;;;;;0.20;0.20;;;;;;;20.27;46.82;102137.44;5097563;28;20043;-40
2023/05/17 05:03:32;;;;;;;0.20;0.20;;;;;;;20.27;46.53;102140.22;5100242;28;20424;-41
2023/05/17 05:05:58;;;;;;;0.20;0.20;;;;;;;20.29;46.37;102151.88;5112297;28;20429;-41
2023/05/17 05:08:23;;;;;;;0.20;0.20;;;;;;;20.29;46.50;102151.00;5095054;28;20058;-41
2023/05/17 05:10:50;;;;;;;0.20;0.20;;;;;;;20.29;46.29;102153.78;5100218;28;20062;-41
2023/05/17 05:13:16;;;;;;;0.20;0.20;;;;;;;20.28;46.85;102158.47;5102862;28;20090;-40
2023/05/17 05:15:41;;;;;;;0.20;0.20;;;;;;;20.27;47.07;102156.81;5087199;28;20326;-41
2023/05/17 05:18:07;;;;;;;0.20;0.20;;;;;;;20.28;46.65;102158.47;5099423;28;20050;-43
2023/05/17 05:20:33;;;;;;;0.20;0.20;;;;;;;20.27;47.34;102175.34;5097037;28;20204;-39
2023/05/17 05:22:59;;;;;;;0.20;0.20;;;;;;;20.28;46.89;102175.09;5100021;28;20047;-43
2023/05/17 05:25:26;;;;;;;0.20;0.20;;;;;;;20.27;46.72;102178.94;5099059;27;20093;-41
2023/05/17 05:27:52;;;;;;;0.20;0.20;;;;;;;20.27;46.89;102181.72;5112498;28;20633;-40
2023/05/17 05:30:21;;;;;;;0.20;0.20;;;;;;;20.27;47.10;102176.19;5104136;28;20200;-39
2023/05/17 05:32:48;;;;;;;0.20;0.20;;;;;;;20.27;46.80;102178.13;5095457;28;20120;-41
2023/05/17 05:35:14;;;;;;;0.20;0.20;;;;;;;20.27;46.63;102180.88;5097350;27;20076;-41
2023/05/17 05:37:41;;;;;;;0.20;0.20;;;;;;;20.26;46.76;102176.44;5108507;28;20066;-42
2023/05/17 05:40:09;;;;;;;0.20;0.20;;;;;;;20.28;46.74;102182.56;5100074;28;20183;-40
2023/05/17 05:42:34;;;;;;;0.20;0.20;;;;;;;20.27;46.96;102186.41;5068622;28;20151;-40
2023/05/17 05:45:00;;;;;;;0.20;0.20;;;;;;;20.26;46.59;102188.34;5101504;28;20571;-40
2023/05/17 05:47:26;;;;;;;0.43;0.43;;;;;;;20.28;46.80;102186.16;5099091;27;20050;-41
2023/05/17 05:49:52;;;;;;;0.20;0.20;;;;;;;20.29;46.45;102187.84;5091275;28;20182;-39
2023/05/17 05:52:17;;;;;;;0.20;0.20;;;;;;;20.27;46.67;102178.94;5092328;28;20046;-40
2023/05/17 05:54:43;;;;;;;0.20;0.20;;;;;;;20.30;46.87;102194.22;5090400;27;20412;-40
2023/05/17 05:57:09;;;;;;;0.20;0.20;;;;;;;20.29;46.78;102193.38;5086919;27;20145;-40
2023/05/17 05:59:35;;;;;;;0.20;0.20;;;;;;;20.28;46.64;102196.38;5086252;28;21084;-39
2023/05/17 06:02:01;;;;;;;0.20;0.20;;;;;;;20.29;46.74;102193.38;5083877;28;20035;-41
2023/05/17 06:04:27;;;;;;;0.20;0.20;;;;;;;20.28;46.47;102211.03;5078255;28;20531;-40
2023/05/17 06:07:10;;;;;;;0.20;0.20;;;;;;;20.30;46.80;102210.81;5069905;27;20697;-39
2023/05/17 06:09:35;;;;;;;0.20;0.20;;;;;;;20.34;46.50;102213.91;5084523;27;20559;-39
2023/05/17 06:12:01;;;;;;;0.20;0.20;;;;;;;20.33;46.71;102212.22;5089010;28;20054;-41
2023/05/17 06:14:27;;;;;;;0.20;0.20;;;;;;;20.35;47.07;102207.28;5094978;28;20535;-42
2023/05/17 06:16:52;;;;;;;0.20;0.20;;;;;;;20.36;46.96;102212.53;5096057;28;20667;-42
2023/05/17 06:19:19;;;;;;;0.20;0.20;;;;;;;20.35;47.31;102213.63;5097077;28;20074;-43
2023/05/17 06:21:44;;;;;;;0.20;0.20;;;;;;;20.40;47.49;102218.38;5093906;28;20040;-44
2023/05/17 06:24:10;;;;;;;0.20;0.20;;;;;;;20.41;47.60;102212.59;5094931;28;20044;-46
2023/05/17 06:26:36;;;;;;;0.20;0.20;;;;;;;20.39;47.23;102217.56;5097318;28;20035;-47
2023/05/17 06:29:02;;;;;;;0.25;0.25;;;;;;;20.40;47.07;102212.84;5096644;28;20051;-43
2023/05/17 06:31:28;;;;;;;0.30;0.30;;;;;;;20.38;46.72;102220.56;5096870;28;20063;-43
2023/05/17 06:33:53;;;;;;;0.20;0.20;;;;;;;20.38;47.42;102210.34;5100387;27;20046;-44
2023/05/17 06:36:19;;;;;;;0.20;0.20;;;;;;;20.37;46.87;102218.91;5088000;27;20431;-43
2023/05/17 06:38:45;;;;;;;0.20;0.20;;;;;;;20.36;46.59;102214.47;5099781;28;20054;-44
2023/05/17 06:41:11;;;;;;;0.30;0.30;;;;;;;20.36;46.40;102223.59;5093343;28;20112;-42
2023/05/17 06:43:36;;;;;;;0.20;0.20;;;;;;;20.36;46.51;102223.59;5088736;27;20800;-41
2023/05/17 06:46:03;;;;;;;0.20;0.20;;;;;;;20.38;46.71;102221.44;5089299;27;20050;-45
2023/05/17 06:48:28;;;;;;;0.20;0.20;;;;;;;20.41;46.91;102225.59;5097105;27;20051;-45
2023/05/17 06:50:55;;;;;;;0.20;0.20;;;;;;;20.41;46.50;102225.59;5086147;28;20050;-42
2023/05/17 06:53:20;;;;;;;0.20;0.20;;;;;;;20.41;46.81;102226.41;5086989;28;20065;-42
2023/05/17 06:55:46;;;;;;;0.30;0.30;;;;;;;20.43;46.96;102226.19;5087130;27;20058;-43
2023/05/17 06:58:12;;;;;;;0.20;0.20;;;;;;;20.42;47.00;102236.41;5077437;27;20681;-42
2023/05/17 07:00:37;;;;;;;0.20;0.20;;;;;;;20.21;43.80;102227.03;5068373;28;20043;-42
2023/05/17 07:03:03;;;;;;;0.20;0.20;;;;;;;20.32;44.22;102227.97;5074582;28;20054;-42
2023/05/17 07:05:29;;;;;;;0.20;0.20;;;;;;;20.35;44.29;102232.16;5066262;27;20134;-42
2023/05/17 07:07:57;;;;;;;0.20;0.20;;;;;;;20.32;43.88;102243.75;5052310;28;20048;-42
2023/05/17 07:10:23;;;;;;;0.20;0.20;;;;;;;20.30;43.48;102236.53;5070068;28;20422;-42
2023/05/17 07:12:48;;;;;;;0.20;0.20;;;;;;;20.34;43.45;102241.56;5058175;27;20526;-42
2023/05/17 07:15:14;;;;;;;0.20;0.20;;;;;;;20.28;42.93;102252.53;5086593;28;20689;-43
2023/05/17 07:17:40;;;;;;;0.20;0.20;;;;;;;20.38;43.25;102251.88;5082763;28;20031;-42
2023/05/17 07:20:06;;;;;;;0.20;0.20;;;;;;;20.39;43.33;102248.00;5087227;27;20051;-43
2023/05/17 07:22:32;;;;;;;0.20;0.20;;;;;;;20.38;43.15;102253.75;5088201;27;20058;-43
2023/05/17 07:24:58;;;;;;;0.20;0.20;;;;;;;20.39;43.02;102256.28;5092524;27;20051;-42
2023/05/17 07:27:23;;;;;;;0.20;0.20;;;;;;;20.40;43.62;102249.66;5095402;27;20050;-43
2023/05/17 07:29:50;;;;;;;0.20;0.20;;;;;;;20.40;43.12;102252.44;5092697;27;20701;-45
2023/05/17 07:32:16;;;;;;;0.20;0.20;;;;;;;20.41;43.90;102256.84;5081497;27;20493;-42
2023/05/17 07:34:42;;;;;;;0.20;0.20;;;;;;;20.05;39.54;102253.63;5090206;27;20044;-54
2023/05/17 07:37:08;;;;;;;0.43;0.43;;;;;;;19.76;38.37;102252.91;5098192;27;20055;-43
2023/05/17 07:39:34;;;;;;;0.20;0.20;;;;;;;19.48;38.49;102258.50;5098527;28;20077;-41
2023/05/17 07:41:59;;;;;;;0.20;0.20;;;;;;;19.84;38.26;102251.63;5095770;28;20755;-43
2023/05/17 07:44:25;;;;;;;0.20;0.20;;;;;;;20.08;38.45;102265.25;5099496;28;20055;-43
2023/05/17 07:46:51;;;;;;;0.20;0.20;;;;;;;20.17;38.76;102264.56;5092887;27;20054;-43
2023/05/17 07:49:17;;;;;;;0.20;0.20;;;;;;;20.23;39.21;102260.78;5090330;27;20047;-42
2023/05/17 07:51:42;;;;;;;0.20;0.20;;;;;;;20.02;39.07;102258.81;5090474;28;20047;-42
2023/05/17 07:54:08;;;;;;;0.20;0.20;;;;;;;20.17;38.69;102261.81;5090608;28;20051;-43
2023/05/17 07:56:34;;;;;;;0.20;0.20;;;;;;;20.25;38.96;102266.91;5075235;28;20076;-45
2023/05/17 07:58:59;;;;;;;0.20;0.20;;;;;;;20.29;39.70;102270.84;5088079;27;20286;-42
2023/05/17 08:01:26;;;;;;;0.20;0.20;;;;;;;20.32;39.67;102268.63;5087714;27;20043;-44
2023/05/17 08:03:52;;;;;;;0.20;0.20;;;;;;;20.32;39.69;102274.16;5083853;28;20092;-43
2023/05/17 08:06:18;;;;;;;0.20;0.20;;;;;;;20.30;39.78;102278.03;5052719;28;20053;-42
2023/05/17 08:08:44;;;;;;;0.20;0.20;;;;;;;20.30;39.77;102272.50;5055506;28;20039;-41
2023/05/17 08:11:11;;;;;;;0.20;0.20;;;;;;;20.33;40.26;102276.66;5072636;27;20178;-43
2023/05/17 08:13:39;;;;;;;0.20;0.20;;;;;;;20.32;40.22;102277.78;5084597;27;20079;-42
2023/05/17 08:16:07;;;;;;;0.20;0.20;;;;;;;20.32;40.04;102275.00;5085635;28;20071;-43
2023/05/17 08:18:40;;;;;;;0.20;0.20;;;;;;;20.34;40.32;102283.91;5091341;28;20043;-42
2023/05/17 08:21:06;;;;;;;0.20;0.20;;;;;;;20.35;40.91;102280.03;5085166;27;20075;-45
2023/05/17 08:23:32;;;;;;;0.20;0.20;;;;;;;20.36;40.75;102280.88;5086625;27;20047;-42
2023/05/17 08:25:58;;;;;;;0.22;0.22;;;;;;;20.35;40.90;102290.28;5089074;28;20148;-42
2023/05/17 08:28:23;;;;;;;0.28;0.28;;;;;;;20.37;40.96;102290.84;5085632;28;20280;-42
2023/05/17 08:30:49;;;;;;;0.20;0.20;;;;;;;20.35;40.82;102287.50;5088906;27;20051;-43
2023/05/17 08:33:15;;;;;;;0.30;0.30;;;;;;;20.33;40.17;102297.97;5075453;27;20071;-42
2023/05/17 08:35:41;;;;;;;0.20;0.20;;;;;;;20.32;40.68;102293.53;5077189;28;20058;-42
2023/05/17 08:38:07;;;;;;;0.20;0.20;;;;;;;20.31;40.45;102292.69;5078442;28;20047;-42
2023/05/17 08:40:33;;;;;;;0.20;0.20;;;;;;;20.35;40.09;102299.41;5063114;28;20047;-42
2023/05/17 08:43:00;;;;;;;0.20;0.20;;;;;;;20.34;40.75;102299.66;5083854;27;20553;-45
2023/05/17 08:45:27;;;;;;;0.20;0.20;;;;;;;20.34;40.63;102296.91;5087395;28;20257;-42
2023/05/17 08:47:54;;;;;;;0.20;0.20;;;;;;;20.33;40.11;102292.44;5093346;28;20098;-42
2023/05/17 08:50:20;;;;;;;0.20;0.20;;;;;;;20.34;40.66;102300.50;5092500;28;20047;-42
2023/05/17 08:52:46;;;;;;;0.20;0.20;;;;;;;20.34;40.42;102302.44;5088959;28;20047;-42
2023/05/17 08:55:15;;;;;;;0.20;0.20;;;;;;;20.31;40.14;102295.47;5102235;27;20495;-43
2023/05/17 08:57:41;;;;;;;0.20;0.20;;;;;;;20.33;40.46;102301.56;5092910;28;20460;-43
2023/05/17 09:00:11;;;;;;;0.20;0.20;;;;;;;20.34;40.57;102303.28;5085524;28;20158;-42
2023/05/17 09:02:37;;;;;;;0.20;0.20;;;;;;;20.36;40.63;102298.31;5100509;28;20458;-42
2023/05/17 09:05:05;;;;;;;0.20;0.20;;;;;;;20.36;40.50;102303.00;5095883;28;20238;-44
2023/05/17 09:07:31;;;;;;;0.20;0.20;;;;;;;20.35;40.50;102302.16;5087082;28;20050;-43
2023/05/17 09:09:57;;;;;;;0.30;0.30;;;;;;;20.35;40.83;102296.63;5081938;28;20048;-43
2023/05/17 09:12:23;;;;;;;0.20;0.20;;;;;;;20.36;39.83;102303.00;5077260;28;20153;-45
2023/05/17 09:14:51;;;;;;;0.20;0.20;;;;;;;20.24;39.77;102305.88;5096268;28;20071;-44
2023/05/17 09:17:17;;;;;;;0.20;0.20;;;;;;;20.32;39.85;102302.66;5099579;28;20075;-42
2023/05/17 09:19:45;;;;;;;0.20;0.20;;;;;;;20.33;39.21;102306.28;5084148;28;20321;-43
2023/05/17 09:22:13;;;;;;;0.13;0.13;;;;;;;20.34;40.37;102308.81;5079564;28;20044;-45
2023/05/17 09:24:40;;;;;;;0.20;0.20;;;;;;;20.34;39.36;102307.97;5092353;27;20455;-41
2023/05/17 09:27:06;;;;;;;0.20;0.20;;;;;;;20.35;39.45;102310.47;5099360;28;20039;-42
2023/05/17 09:29:31;;;;;;;0.20;0.20;;;;;;;20.33;40.19;102309.03;5086347;28;20526;-43
2023/05/17 09:34:49;;;;;;;0.20;0.20;;;;;;;20.34;39.35;102299.66;5143974;27;20127;-43
2023/05/17 09:37:16;;;;;;;0.20;0.20;;;;;;;20.33;39.61;102307.09;5132532;27;20132;-40
2023/05/17 09:39:44;;;;;;;0.20;0.20;;;;;;;20.37;41.16;102301.91;5134900;27;20373;-40
2023/05/17 09:42:11;;;;;;;0.20;0.20;;;;;;;20.41;41.32;102295.59;5122559;27;20483;-44
2023/05/17 09:44:46;;;;;;;0.20;0.20;;;;;;;20.42;41.29;102302.81;5128087;27;20046;-42
2023/05/17 09:47:21;;;;;;;0.20;0.20;;;;;;;20.49;41.40;102300.72;5101908;27;20070;-52
2023/05/17 09:49:46;;;;;;;0.20;0.20;;;;;;;20.51;41.73;102298.56;5120714;27;20502;-41
2023/05/17 09:52:16;;;;;;;0.20;0.20;;;;;;;20.50;40.54;102291.31;5120707;27;20537;-42
2023/05/17 09:54:42;;;;;;;0.20;0.20;;;;;;;20.49;41.22;102302.66;5130723;27;20102;-42
2023/05/17 09:57:09;;;;;;;0.20;0.20;;;;;;;20.49;41.73;102292.41;5122732;27;20061;-42
2023/05/17 09:59:35;;;;;;;0.20;0.20;;;;;;;20.49;41.69;102294.34;5132277;27;20058;-44
2023/05/17 10:02:01;;;;;;;0.20;0.20;;;;;;;20.47;41.35;102297.34;5132383;27;20039;-43
2023/05/17 10:04:29;;;;;;;0.20;0.20;;;;;;;20.48;41.70;102301.00;5125953;27;20042;-42
2023/05/17 10:06:55;;;;;;;0.20;0.20;;;;;;;20.47;41.96;102304.81;5131418;27;20074;-42
2023/05/17 10:09:21;;;;;;;0.20;0.20;;;;;;;20.46;42.20;102300.38;5133041;27;20119;-46
2023/05/17 10:11:47;;;;;;;0.20;0.20;;;;;;;20.47;42.10;102294.59;5130141;27;20443;-42
2023/05/17 10:14:31;;;;;;;0.20;0.20;;;;;;;20.46;41.90;102290.13;5129522;27;20098;-42
2023/05/17 10:16:57;;;;;;;0.22;0.22;;;;;;;20.46;41.94;102287.34;5108853;27;20042;-42
2023/05/17 10:19:24;;;;;;;0.20;0.20;;;;;;;20.47;41.99;102277.16;5119781;27;20046;-43
2023/05/17 10:21:51;;;;;;;0.20;0.20;;;;;;;20.48;42.35;102289.91;5135965;27;20133;-43
2023/05/17 10:24:19;;;;;;;0.20;0.20;;;;;;;20.51;41.73;102281.13;5134085;27;20046;-43
2023/05/17 10:26:45;;;;;;;0.20;0.20;;;;;;;20.52;41.91;102283.63;5111857;27;20048;-42
2023/05/17 10:29:10;;;;;;;0.20;0.20;;;;;;;20.49;41.63;102286.88;5130096;27;20433;-42
2023/05/17 10:31:37;;;;;;;0.20;0.20;;;;;;;20.50;41.25;102283.03;5129502;27;20047;-43
2023/05/17 10:34:04;;;;;;;0.20;0.20;;;;;;;20.49;40.87;102284.13;5106930;27;20275;-43
2023/05/17 10:36:30;;;;;;;0.20;0.20;;;;;;;20.56;40.14;102280.34;5113818;27;20042;-43
2023/05/17 10:38:57;;;;;;;0.20;0.20;;;;;;;20.57;41.33;102282.00;5108964;27;20061;-43
2023/05/17 10:41:27;;;;;;;0.20;0.20;;;;;;;20.50;40.98;102288.56;5104546;27;20078;-42
2023/05/17 10:43:53;;;;;;;0.20;0.20;;;;;;;20.50;40.38;102283.03;5096953;27;20260;-42
2023/05/17 10:46:20;;;;;;;0.20;0.20;;;;;;;20.48;39.73;102276.09;5085196;27;20341;-45
2023/05/17 10:48:49;;;;;;;0.20;0.20;;;;;;;20.46;39.91;102273.53;5056235;28;20498;-46
2023/05/17 10:51:22;;;;;;;0.20;0.20;;;;;;;20.47;40.23;102266.91;5102644;27;20137;-45
2023/05/17 10:54:10;;;;;;;0.20;0.20;;;;;;;20.49;40.36;102272.22;5094582;27;20046;-41
2023/05/17 10:56:41;;;;;;;0.10;0.10;;;;;;;20.49;39.99;102272.22;5091564;28;20148;-43
2023/05/17 10:59:17;;;;;;;0.20;0.20;;;;;;;20.45;39.34;102269.09;5089669;27;20081;-42
2023/05/17 11:01:58;;;;;;;0.20;0.20;;;;;;;20.48;40.06;102273.31;5077417;28;20054;-41
2023/05/17 11:07:22;;;;;;;0.20;0.20;;;;;;;20.49;39.87;102278.59;5130167;27;20129;-42
2023/05/17 11:09:53;;;;;;;0.20;0.20;;;;;;;20.49;40.39;102267.50;5112537;27;20035;-41
2023/05/17 11:12:29;;;;;;;0.20;0.20;;;;;;;19.91;36.38;102260.59;5127677;27;20043;-55
2023/05/17 11:14:58;;;;;;;0.20;0.20;;;;;;;20.26;37.01;102260.28;5114711;27;20742;-43
2023/05/17 11:17:26;;;;;;;0.20;0.20;;;;;;;20.40;36.83;102257.13;5112182;27;20046;-42
2023/05/17 11:22:36;;;;;;;0.20;0.20;;;;;;;20.46;37.61;102253.31;5162601;27;20878;-43
2023/05/17 11:25:06;;;;;;;0.20;0.20;;;;;;;20.45;37.89;102258.03;5138400;27;20054;-43
2023/05/17 11:27:37;;;;;;;0.20;0.20;;;;;;;20.49;38.60;102263.91;5130496;27;20053;-42
2023/05/17 11:30:25;;;;;;;0.20;0.20;;;;;;;20.47;38.24;102250.31;5115491;27;20516;-44
2023/05/17 11:32:53;;;;;;;0.20;0.20;;;;;;;20.46;38.43;102256.91;5106357;27;20318;-42
2023/05/17 11:35:23;;;;;;;0.20;0.20;;;;;;;20.48;38.39;102260.31;5106968;27;20069;-42